Potash Point, Vermont
Current Conditions -  °F | °C
As of 12:35 PM on Wednesday 26 Nov 2014 (Local Time) from K6B0 Reporting Station
Light Snow Light Snow  
Wind Chill: 30°   Ceiling: 1400
Heat Index: 34°   Visibility: 1.2mi
Dew Point: 27°   Wind: 5mph
Humidity: 77%   Direction: 30°NNE
Pressure: 30.16"   Gusts: NA
Location:  44.0804°N, 73.3324°W
Report Text: K6B0 261735Z AUTO 03004KT 1 1/4SM -SN BKN014 BKN021 OVC032 01/M03 A3016 RMK AO2 T00101027
Loading
Personal Weather Stations






























Interactive Weather Map New forecast layout! Learn more

10-Day Weather Forecast

Advertisements
Track Severe Weather on mobile